createdAt,value
2022-11-27T00:00:55.148Z,5.70
2022-11-27T00:01:56.563Z,5.15
2022-11-27T00:02:58.501Z,5.50
2022-11-27T00:04:00.338Z,4.93
2022-11-27T00:05:01.903Z,5.15
2022-11-27T00:06:03.572Z,5.10
2022-11-27T00:07:05.021Z,4.57
2022-11-27T00:08:06.910Z,5.05
2022-11-27T00:09:13.532Z,4.70
2022-11-27T00:10:15.013Z,4.75
2022-11-27T00:11:20.639Z,4.82
2022-11-27T00:12:22.106Z,4.80
2022-11-27T00:13:23.913Z,4.72
2022-11-27T00:14:25.443Z,5.72
2022-11-27T00:15:26.989Z,5.43
2022-11-27T00:16:28.729Z,6.00
2022-11-27T00:17:30.615Z,5.53
2022-11-27T00:18:32.743Z,5.53
2022-11-27T00:19:34.202Z,5.75
2022-11-27T00:20:35.909Z,5.80
2022-11-27T00:21:38.673Z,5.70
2022-11-27T00:22:40.496Z,6.13
2022-11-27T00:23:42.323Z,6.22
2022-11-27T00:24:44.223Z,5.65
2022-11-27T00:25:52.731Z,5.32
2022-11-27T00:26:54.269Z,5.15
2022-11-27T00:27:56.223Z,5.70
2022-11-27T00:28:57.689Z,5.35
2022-11-27T00:29:59.136Z,5.63
2022-11-27T00:31:02.749Z,5.80
2022-11-27T00:32:06.521Z,4.78
2022-11-27T00:33:08.258Z,5.60
2022-11-27T00:34:10.827Z,5.63
2022-11-27T00:35:12.286Z,5.53
2022-11-27T00:36:14.930Z,5.45
2022-11-27T00:37:16.384Z,5.88
2022-11-27T00:38:18.141Z,5.50
2022-11-27T00:39:19.760Z,5.32
2022-11-27T00:40:21.212Z,5.30
2022-11-27T00:41:25.796Z,5.68
2022-11-27T00:42:27.654Z,5.15
2022-11-27T00:43:29.093Z,5.35
2022-11-27T00:44:30.670Z,5.60
2022-11-27T00:45:32.105Z,5.65
2022-11-27T00:46:35.289Z,5.88
2022-11-27T00:47:37.106Z,5.60
2022-11-27T00:48:38.656Z,5.70
2022-11-27T00:49:40.097Z,5.85
2022-11-27T00:50:41.539Z,5.35
2022-11-27T00:51:43.626Z,5.55
2022-11-27T00:52:45.391Z,5.63
2022-11-27T00:53:47.363Z,5.80
2022-11-27T00:54:48.768Z,5.60
2022-11-27T00:55:50.220Z,6.00
2022-11-27T00:56:51.686Z,5.82
2022-11-27T00:57:53.146Z,5.78
2022-11-27T00:58:55.122Z,5.75
2022-11-27T00:59:56.642Z,5.65
2022-11-27T01:01:04.258Z,5.22
2022-11-27T01:02:06.078Z,5.10
2022-11-27T01:03:07.647Z,5.63
2022-11-27T01:04:13.110Z,6.07
2022-11-27T01:05:14.592Z,5.93
2022-11-27T01:06:18.182Z,5.90
2022-11-27T01:07:20.113Z,5.40
2022-11-27T01:08:22.300Z,5.75
2022-11-27T01:09:23.769Z,5.97
2022-11-27T01:10:25.184Z,5.90
2022-11-27T01:11:29.580Z,5.13
2022-11-27T01:12:31.023Z,5.30
2022-11-27T01:13:35.766Z,5.90
2022-11-27T01:14:38.308Z,5.65
2022-11-27T01:15:40.024Z,6.70
2022-11-27T01:16:43.298Z,5.55
2022-11-27T01:17:44.883Z,5.55
2022-11-27T01:18:48.280Z,5.75
2022-11-27T01:19:49.849Z,5.50
2022-11-27T01:20:54.876Z,5.22
2022-11-27T01:21:56.409Z,5.72
2022-11-27T01:22:57.872Z,5.40
2022-11-27T01:24:00.358Z,5.35
2022-11-27T01:25:01.823Z,5.75
2022-11-27T01:26:07.930Z,5.50
2022-11-27T01:27:09.722Z,5.57
2022-11-27T01:28:11.197Z,5.60
2022-11-27T01:29:12.710Z,5.30
2022-11-27T01:30:14.660Z,5.55
2022-11-27T01:31:22.525Z,5.10
2022-11-27T01:32:24.331Z,5.18
2022-11-27T01:33:25.804Z,5.30
2022-11-27T01:34:27.228Z,4.93
2022-11-27T01:35:28.740Z,5.47
2022-11-27T01:36:31.017Z,5.05
2022-11-27T01:37:32.766Z,5.00
2022-11-27T01:38:34.717Z,4.80
2022-11-27T01:39:36.166Z,5.03
2022-11-27T01:40:37.628Z,5.10
2022-11-27T01:41:39.957Z,5.05
2022-11-27T01:42:41.467Z,4.95
2022-11-27T01:43:52.969Z,4.70
2022-11-27T01:44:55.607Z,4.85
2022-11-27T01:45:57.051Z,5.28
2022-11-27T01:47:20.002Z,4.97
2022-11-27T01:48:21.472Z,5.30
2022-11-27T01:49:32.660Z,4.88
2022-11-27T01:50:38.399Z,4.70
2022-11-27T01:51:51.111Z,4.97
2022-11-27T01:52:58.154Z,5.20
2022-11-27T01:53:59.828Z,5.35
2022-11-27T01:55:10.451Z,5.38
2022-11-27T01:56:12.293Z,5.47
2022-11-27T01:57:19.557Z,5.55
2022-11-27T01:58:28.281Z,5.40
2022-11-27T01:59:30.437Z,5.32
2022-11-27T02:00:32.005Z,5.50
2022-11-27T02:01:33.586Z,5.18
2022-11-27T02:02:35.368Z,5.13
2022-11-27T02:03:37.531Z,5.28
2022-11-27T02:04:39.205Z,4.82
2022-11-27T02:05:40.937Z,5.35
2022-11-27T02:06:42.393Z,5.53
2022-11-27T02:07:45.146Z,5.32
2022-11-27T02:08:46.685Z,5.38
2022-11-27T02:09:48.255Z,4.82
2022-11-27T02:10:54.460Z,5.25
2022-11-27T02:12:01.684Z,5.03
2022-11-27T02:13:11.703Z,5.88
2022-11-27T02:14:31.371Z,5.63
2022-11-27T02:15:58.310Z,4.72
2022-11-27T02:17:20.170Z,5.20
2022-11-27T02:18:27.750Z,5.22
2022-11-27T02:20:06.618Z,5.18
2022-11-27T02:21:26.483Z,4.75
2022-11-27T02:22:52.751Z,5.40
2022-11-27T02:24:18.579Z,5.80
2022-11-27T02:25:42.690Z,5.22
2022-11-27T02:27:12.488Z,5.43
2022-11-27T02:28:32.940Z,5.07
2022-11-27T02:29:35.759Z,5.28
2022-11-27T02:30:43.873Z,5.20
2022-11-27T02:32:12.221Z,5.05
2022-11-27T02:33:20.525Z,4.90
2022-11-27T02:34:28.108Z,5.43
2022-11-27T02:35:38.464Z,5.18
2022-11-27T02:36:43.833Z,5.40
2022-11-27T02:37:47.833Z,5.35
2022-11-27T02:39:15.670Z,5.47
2022-11-27T02:40:42.578Z,5.50
2022-11-27T02:41:49.497Z,5.90
2022-11-27T02:42:59.754Z,6.03
2022-11-27T02:44:02.770Z,5.93
2022-11-27T02:45:17.365Z,6.65
2022-11-27T02:46:20.740Z,6.10
2022-11-27T02:47:23.042Z,6.50
2022-11-27T02:48:33.375Z,6.03
2022-11-27T02:49:36.970Z,5.93
2022-11-27T02:50:41.865Z,8.15
2022-11-27T02:51:52.236Z,7.45
2022-11-27T02:52:58.971Z,8.10
2022-11-27T02:54:05.518Z,6.75
2022-11-27T02:55:11.685Z,5.70
2022-11-27T02:56:16.489Z,5.97
2022-11-27T02:57:20.802Z,4.80
2022-11-27T02:58:25.916Z,5.60
2022-11-27T02:59:30.991Z,5.60
2022-11-27T03:00:35.340Z,5.10
2022-11-27T03:01:43.819Z,5.22
2022-11-27T03:02:57.853Z,5.15
2022-11-27T03:04:02.284Z,5.10
2022-11-27T03:05:07.889Z,5.20
2022-11-27T03:06:14.286Z,4.88
2022-11-27T03:07:22.491Z,5.07
2022-11-27T03:08:35.392Z,4.85
2022-11-27T03:09:43.520Z,5.03
2022-11-27T03:11:01.421Z,4.43
2022-11-27T03:12:07.370Z,5.05
2022-11-27T03:13:09.457Z,5.20
2022-11-27T03:14:12.391Z,5.07
2022-11-27T03:15:14.037Z,5.10
2022-11-27T03:16:38.523Z,4.97
2022-11-27T03:17:57.708Z,4.80
2022-11-27T03:19:18.262Z,5.30
2022-11-27T03:20:25.569Z,4.70
2022-11-27T03:21:36.443Z,5.32
2022-11-27T03:22:38.355Z,5.03
2022-11-27T03:23:39.794Z,4.90
2022-11-27T03:24:41.621Z,5.00
2022-11-27T03:25:43.224Z,5.10
2022-11-27T03:26:45.069Z,4.88
2022-11-27T03:27:54.256Z,4.55
2022-11-27T03:28:58.804Z,5.28
2022-11-27T03:30:03.383Z,5.03
2022-11-27T03:31:05.413Z,5.07
2022-11-27T03:32:07.205Z,5.82
2022-11-27T03:33:09.313Z,4.70
2022-11-27T03:34:11.747Z,4.80
2022-11-27T03:35:17.161Z,4.68
2022-11-27T03:36:20.350Z,4.78
2022-11-27T03:37:23.360Z,4.88
2022-11-27T03:38:25.170Z,4.72
2022-11-27T03:39:27.959Z,5.10
2022-11-27T03:40:39.868Z,4.80
2022-11-27T03:41:51.808Z,5.22
2022-11-27T03:43:10.142Z,4.75
2022-11-27T03:44:24.577Z,4.75
2022-11-27T03:45:34.926Z,4.82
2022-11-27T03:47:13.913Z,4.45
2022-11-27T03:48:35.723Z,5.00
2022-11-27T03:50:14.580Z,5.28
2022-11-27T03:51:27.971Z,4.60
2022-11-27T03:52:49.361Z,4.68
2022-11-27T03:54:04.707Z,4.63
2022-11-27T03:56:30.417Z,4.40
2022-11-27T03:57:52.415Z,4.70
2022-11-27T03:59:15.409Z,6.68
2022-11-27T04:00:17.455Z,12.30
2022-11-27T04:01:23.511Z,13.88
2022-11-27T04:02:34.260Z,12.18
2022-11-27T04:03:36.606Z,11.43
2022-11-27T04:04:38.591Z,9.20
2022-11-27T04:05:40.769Z,7.93
2022-11-27T04:06:42.302Z,6.93
2022-11-27T04:07:44.470Z,5.90
2022-11-27T04:08:47.231Z,5.40
2022-11-27T04:09:48.708Z,4.53
2022-11-27T04:10:50.250Z,5.15
2022-11-27T04:11:51.690Z,5.18
2022-11-27T04:12:53.475Z,4.57
2022-11-27T04:13:54.938Z,5.00
2022-11-27T04:14:56.429Z,4.90
2022-11-27T04:16:01.947Z,4.80
2022-11-27T04:17:03.536Z,4.70
2022-11-27T04:18:05.608Z,5.35
2022-11-27T04:19:08.158Z,5.55
2022-11-27T04:20:11.097Z,5.00
2022-11-27T04:21:12.806Z,4.88
2022-11-27T04:22:14.491Z,4.85
2022-11-27T04:23:16.570Z,4.85
2022-11-27T04:24:18.010Z,4.38
2022-11-27T04:25:19.584Z,4.80
2022-11-27T04:26:21.068Z,4.50
2022-11-27T04:27:22.507Z,4.78
2022-11-27T04:28:24.285Z,4.85
2022-11-27T04:29:25.748Z,4.68
2022-11-27T04:30:27.187Z,4.97
2022-11-27T04:31:28.647Z,4.40
2022-11-27T04:32:30.240Z,4.35
2022-11-27T04:33:32.080Z,4.57
2022-11-27T04:34:33.611Z,4.32
2022-11-27T04:35:35.055Z,4.53
2022-11-27T04:36:39.452Z,4.07
2022-11-27T04:37:41.619Z,4.50
2022-11-27T04:38:43.025Z,4.05
2022-11-27T04:39:44.420Z,4.38
2022-11-27T04:40:45.902Z,4.55
2022-11-27T04:41:47.312Z,4.63
2022-11-27T04:42:48.822Z,4.18
2022-11-27T04:43:50.260Z,4.30
2022-11-27T04:44:51.650Z,4.80
2022-11-27T04:45:53.066Z,4.57
2022-11-27T04:46:54.644Z,4.13
2022-11-27T04:47:56.517Z,4.38
2022-11-27T04:48:57.997Z,4.38
2022-11-27T04:49:59.433Z,4.40
2022-11-27T04:51:00.843Z,4.43
2022-11-27T04:52:02.326Z,4.40
2022-11-27T04:53:03.945Z,4.40
2022-11-27T04:54:05.465Z,4.20
2022-11-27T04:55:07.531Z,4.35
2022-11-27T04:56:08.946Z,4.55
2022-11-27T04:57:10.700Z,4.40
2022-11-27T04:58:12.100Z,4.63
2022-11-27T04:59:14.931Z,4.50
2022-11-27T05:00:16.746Z,4.25
2022-11-27T05:01:18.537Z,4.15
2022-11-27T05:02:20.392Z,4.47
2022-11-27T05:03:21.919Z,4.00
2022-11-27T05:04:23.480Z,4.50
2022-11-27T05:05:24.904Z,4.72
2022-11-27T05:06:26.387Z,3.80
2022-11-27T05:07:28.173Z,4.30
2022-11-27T05:08:31.892Z,4.13
2022-11-27T05:09:33.312Z,4.35
2022-11-27T05:10:34.736Z,4.68
2022-11-27T05:11:36.219Z,6.30
2022-11-27T05:12:37.971Z,7.15
2022-11-27T05:13:39.951Z,6.40
2022-11-27T05:14:41.716Z,5.95
2022-11-27T05:15:43.822Z,6.00
2022-11-27T05:16:56.296Z,6.05
2022-11-27T05:17:58.049Z,6.90
2022-11-27T05:18:59.450Z,6.70
2022-11-27T05:20:00.857Z,5.30
2022-11-27T05:21:05.503Z,5.07
2022-11-27T05:22:07.254Z,4.80
2022-11-27T05:23:08.640Z,4.85
2022-11-27T05:24:10.630Z,4.38
2022-11-27T05:25:12.080Z,4.68
2022-11-27T05:26:13.459Z,4.53
2022-11-27T05:27:15.227Z,5.15
2022-11-27T05:28:16.669Z,4.97
2022-11-27T05:29:19.231Z,4.88
2022-11-27T05:30:20.634Z,4.50
2022-11-27T05:31:22.123Z,4.95
2022-11-27T05:32:23.586Z,4.63
2022-11-27T05:33:25.019Z,5.00
2022-11-27T05:34:26.559Z,4.78
2022-11-27T05:35:27.979Z,4.85
2022-11-27T05:36:30.273Z,4.75
2022-11-27T05:37:31.668Z,5.20
2022-11-27T05:38:33.098Z,4.60
2022-11-27T05:39:34.484Z,5.00
2022-11-27T05:40:35.953Z,4.55
2022-11-27T05:41:39.302Z,5.18
2022-11-27T05:42:41.007Z,4.95
2022-11-27T05:43:42.475Z,5.22
2022-11-27T05:44:43.864Z,4.85
2022-11-27T05:45:45.275Z,4.57
2022-11-27T05:46:47.055Z,4.70
2022-11-27T05:47:48.692Z,4.97
2022-11-27T05:48:50.436Z,4.75
2022-11-27T05:49:51.921Z,4.68
2022-11-27T05:50:53.380Z,4.47
2022-11-27T05:51:55.131Z,4.90
2022-11-27T05:52:56.521Z,4.45
2022-11-27T05:53:58.074Z,4.75
2022-11-27T05:54:59.478Z,4.47
2022-11-27T05:56:05.073Z,4.50
2022-11-27T05:57:06.827Z,4.40
2022-11-27T05:58:08.238Z,4.50
2022-11-27T05:59:10.806Z,4.25
2022-11-27T06:00:13.191Z,4.38
2022-11-27T06:01:16.475Z,4.68
2022-11-27T06:02:22.530Z,3.95
2022-11-27T06:03:25.728Z,3.80
2022-11-27T06:04:27.249Z,4.97
2022-11-27T06:05:28.777Z,4.80
2022-11-27T06:06:30.203Z,5.45
2022-11-27T06:07:32.085Z,4.93
2022-11-27T06:08:33.523Z,5.15
2022-11-27T06:09:37.770Z,5.30
2022-11-27T06:10:39.855Z,5.20
2022-11-27T06:11:42.879Z,5.20
2022-11-27T06:12:44.304Z,5.90
2022-11-27T06:13:46.941Z,5.07
2022-11-27T06:14:48.383Z,5.07
2022-11-27T06:15:54.219Z,5.60
2022-11-27T06:16:58.833Z,5.00
2022-11-27T06:18:00.643Z,5.35
2022-11-27T06:19:02.277Z,4.57
2022-11-27T06:20:06.597Z,5.22
2022-11-27T06:21:09.902Z,4.75
2022-11-27T06:22:11.519Z,5.22
2022-11-27T06:23:12.954Z,4.78
2022-11-27T06:24:14.652Z,5.10
2022-11-27T06:25:16.255Z,5.20
2022-11-27T06:26:20.545Z,5.32
2022-11-27T06:27:22.377Z,5.50
2022-11-27T06:28:23.858Z,5.20
2022-11-27T06:29:25.275Z,5.28
2022-11-27T06:30:26.841Z,5.45
2022-11-27T06:31:30.962Z,5.43
2022-11-27T06:32:32.901Z,5.40
2022-11-27T06:33:35.093Z,5.05
2022-11-27T06:34:36.510Z,4.90
2022-11-27T06:35:37.963Z,5.35
2022-11-27T06:36:42.782Z,5.13
2022-11-27T06:37:44.233Z,5.82
2022-11-27T06:38:46.325Z,6.00
2022-11-27T06:39:50.815Z,6.20
2022-11-27T06:40:52.314Z,5.13
2022-11-27T06:41:54.060Z,5.75
2022-11-27T06:42:55.512Z,5.75
2022-11-27T06:43:58.908Z,5.75
2022-11-27T06:45:00.363Z,5.03
2022-11-27T06:46:03.453Z,4.90
2022-11-27T06:47:05.381Z,4.72
2022-11-27T06:48:06.875Z,5.13
2022-11-27T06:49:09.531Z,5.72
2022-11-27T06:50:11.077Z,4.85
2022-11-27T06:51:16.662Z,4.90
2022-11-27T06:52:18.141Z,5.50
2022-11-27T06:53:19.713Z,5.70
2022-11-27T06:54:21.129Z,5.50
2022-11-27T06:55:22.580Z,5.28
2022-11-27T06:56:27.414Z,6.05
2022-11-27T06:57:28.816Z,5.70
2022-11-27T06:58:31.313Z,6.93
2022-11-27T06:59:32.888Z,5.85
2022-11-27T07:00:34.377Z,5.95
2022-11-27T07:01:36.317Z,6.80
2022-11-27T07:02:37.988Z,6.25
2022-11-27T07:03:39.625Z,5.70
2022-11-27T07:04:41.429Z,6.28
2022-11-27T07:05:42.997Z,6.00
2022-11-27T07:06:44.818Z,5.35
2022-11-27T07:07:46.261Z,5.72
2022-11-27T07:08:47.744Z,5.55
2022-11-27T07:09:49.170Z,5.32
2022-11-27T07:10:50.788Z,4.70
2022-11-27T07:11:52.646Z,4.43
2022-11-27T07:12:54.142Z,4.95
2022-11-27T07:14:02.070Z,5.25
2022-11-27T07:15:04.567Z,4.90
2022-11-27T07:16:09.008Z,4.43
2022-11-27T07:17:10.835Z,4.70
2022-11-27T07:18:12.378Z,4.78
2022-11-27T07:19:14.676Z,5.13
2022-11-27T07:20:16.229Z,4.82
2022-11-27T07:21:18.272Z,4.85
2022-11-27T07:22:19.670Z,4.95
2022-11-27T07:23:21.937Z,5.15
2022-11-27T07:24:23.472Z,4.93
2022-11-27T07:25:25.027Z,5.35
2022-11-27T07:26:29.244Z,5.43
2022-11-27T07:27:30.667Z,4.80
2022-11-27T07:28:32.111Z,4.82
2022-11-27T07:29:33.527Z,4.60
2022-11-27T07:30:34.990Z,4.68
2022-11-27T07:31:36.822Z,4.43
2022-11-27T07:32:38.305Z,4.57
2022-11-27T07:33:39.776Z,4.55
2022-11-27T07:34:41.363Z,4.15
2022-11-27T07:35:42.926Z,4.93
2022-11-27T07:36:44.779Z,4.45
2022-11-27T07:37:46.219Z,5.05
2022-11-27T07:38:47.988Z,4.20
2022-11-27T07:40:03.914Z,4.75
2022-11-27T07:41:06.471Z,4.70
2022-11-27T07:42:37.443Z,4.18
2022-11-27T07:43:31.163Z,4.20
2022-11-27T07:44:32.601Z,4.18
2022-11-27T07:45:34.072Z,4.25
2022-11-27T07:46:35.970Z,4.40
2022-11-27T07:47:38.494Z,4.68
2022-11-27T07:48:39.950Z,4.10
2022-11-27T07:49:41.533Z,4.28
2022-11-27T07:50:43.020Z,4.22
2022-11-27T07:51:45.150Z,4.10
2022-11-27T07:52:46.650Z,4.03
2022-11-27T07:53:51.586Z,3.75
2022-11-27T07:54:53.024Z,4.47
2022-11-27T07:55:54.478Z,4.13
2022-11-27T07:56:56.238Z,4.53
2022-11-27T07:57:57.660Z,4.43
2022-11-27T07:58:59.097Z,4.28
2022-11-27T08:00:00.562Z,4.10
2022-11-27T08:01:06.772Z,4.03
2022-11-27T08:02:12.548Z,4.20
2022-11-27T08:03:14.025Z,4.30
2022-11-27T08:04:15.492Z,3.97
2022-11-27T08:05:17.101Z,4.38
2022-11-27T08:06:24.336Z,4.00
2022-11-27T08:07:29.895Z,4.63
2022-11-27T08:08:31.430Z,4.05
2022-11-27T08:09:32.878Z,4.30
2022-11-27T08:10:38.854Z,4.20
2022-11-27T08:11:40.634Z,3.63
2022-11-27T08:12:42.076Z,4.20
2022-11-27T08:13:43.558Z,3.95
2022-11-27T08:14:45.115Z,4.22
2022-11-27T08:15:47.591Z,4.13
2022-11-27T08:16:49.050Z,3.90
2022-11-27T08:17:50.518Z,3.90
2022-11-27T08:18:52.796Z,4.45
2022-11-27T08:19:54.230Z,4.32
2022-11-27T08:20:56.078Z,4.53
2022-11-27T08:21:58.349Z,5.97
2022-11-27T08:23:02.913Z,5.85
2022-11-27T08:24:05.095Z,5.72
2022-11-27T08:25:07.038Z,5.45
2022-11-27T08:26:10.229Z,5.07
2022-11-27T08:27:11.746Z,5.10
2022-11-27T08:28:13.244Z,5.20
2022-11-27T08:29:14.663Z,6.10
2022-11-27T08:30:16.212Z,4.72
2022-11-27T08:31:18.443Z,4.95
2022-11-27T08:32:19.979Z,5.38
2022-11-27T08:33:21.412Z,4.72
2022-11-27T08:34:22.875Z,5.22
2022-11-27T08:35:24.416Z,5.70
2022-11-27T08:36:27.418Z,4.90
2022-11-27T08:37:28.857Z,4.55
2022-11-27T08:38:30.456Z,4.80
2022-11-27T08:39:31.943Z,5.30
2022-11-27T08:40:33.355Z,4.70
2022-11-27T08:41:35.232Z,4.80
2022-11-27T08:42:36.708Z,4.93
2022-11-27T08:43:38.212Z,5.40
2022-11-27T08:44:39.932Z,5.50
2022-11-27T08:45:41.700Z,4.53
2022-11-27T08:46:44.515Z,4.75
2022-11-27T08:47:45.953Z,4.72
2022-11-27T08:48:47.397Z,5.38
2022-11-27T08:49:48.911Z,5.80
2022-11-27T08:50:50.897Z,5.65
2022-11-27T08:51:52.402Z,6.70
2022-11-27T08:52:53.984Z,9.27
2022-11-27T08:53:55.446Z,10.68
2022-11-27T08:54:58.000Z,9.73
2022-11-27T08:56:12.245Z,7.57
2022-11-27T08:57:13.682Z,7.13
2022-11-27T08:58:15.225Z,6.18
2022-11-27T08:59:16.647Z,5.38
2022-11-27T09:00:21.381Z,5.80
2022-11-27T09:01:28.461Z,5.85
2022-11-27T09:02:29.982Z,5.43
2022-11-27T09:03:31.409Z,5.65
2022-11-27T09:04:32.917Z,6.03
2022-11-27T09:05:34.460Z,5.70
2022-11-27T09:06:36.607Z,5.45
2022-11-27T09:07:38.609Z,5.43
2022-11-27T09:08:41.782Z,5.75
2022-11-27T09:09:43.352Z,6.22
2022-11-27T09:10:44.792Z,6.43
2022-11-27T09:11:46.545Z,5.68
2022-11-27T09:12:51.124Z,6.05
2022-11-27T09:13:53.105Z,5.40
2022-11-27T09:14:54.563Z,5.90
2022-11-27T09:15:57.512Z,6.50
2022-11-27T09:16:59.318Z,5.88
2022-11-27T09:18:00.751Z,5.88
2022-11-27T09:19:02.270Z,6.95
2022-11-27T09:20:05.094Z,6.72
2022-11-27T09:21:09.442Z,6.78
2022-11-27T09:22:10.990Z,7.18
2022-11-27T09:23:14.533Z,7.47
2022-11-27T09:24:16.221Z,7.55
2022-11-27T09:25:17.725Z,6.47
2022-11-27T09:26:19.648Z,6.28
2022-11-27T09:27:21.106Z,10.75
2022-11-27T09:28:25.595Z,8.70
2022-11-27T09:29:29.701Z,7.93
2022-11-27T09:30:31.109Z,6.95
2022-11-27T09:31:32.941Z,6.30
2022-11-27T09:32:34.745Z,6.07
2022-11-27T09:33:38.371Z,6.55
2022-11-27T09:34:40.062Z,5.60
2022-11-27T09:35:41.802Z,6.10
2022-11-27T09:36:43.623Z,6.45
2022-11-27T09:37:45.113Z,6.30
2022-11-27T09:38:47.410Z,5.97
2022-11-27T09:39:48.909Z,6.50
2022-11-27T09:41:02.992Z,5.85
2022-11-27T09:42:06.628Z,6.20
2022-11-27T09:43:11.467Z,5.40
2022-11-27T09:44:30.925Z,6.75
2022-11-27T09:45:33.525Z,6.50
2022-11-27T09:46:39.132Z,5.63
2022-11-27T09:47:50.317Z,6.90
2022-11-27T09:48:53.306Z,6.00
2022-11-27T09:49:56.895Z,6.75
2022-11-27T09:51:02.497Z,6.38
2022-11-27T09:52:26.211Z,5.97
2022-11-27T09:53:47.189Z,6.10
2022-11-27T09:55:05.401Z,5.70
2022-11-27T09:56:12.445Z,6.22
2022-11-27T09:57:17.015Z,5.95
2022-11-27T09:58:45.309Z,7.78
2022-11-27T09:59:51.841Z,6.45
2022-11-27T10:00:53.358Z,6.13
2022-11-27T10:01:55.183Z,6.43
2022-11-27T10:02:56.974Z,6.72
2022-11-27T10:04:01.383Z,6.03
2022-11-27T10:05:17.884Z,6.00
2022-11-27T10:06:43.625Z,5.80
2022-11-27T10:08:06.948Z,6.22
2022-11-27T10:09:08.677Z,6.05
2022-11-27T10:10:57.023Z,6.40
2022-11-27T10:12:01.782Z,6.93
2022-11-27T10:13:26.474Z,7.15
2022-11-27T10:14:35.035Z,5.95
2022-11-27T10:15:47.865Z,6.32
2022-11-27T10:17:05.391Z,7.20
2022-11-27T10:18:17.601Z,6.13
2022-11-27T10:19:21.900Z,6.80
2022-11-27T10:20:44.666Z,6.22
2022-11-27T10:22:07.803Z,6.38
2022-11-27T10:23:24.535Z,5.85
2022-11-27T10:24:48.377Z,6.47
2022-11-27T10:26:10.971Z,6.82
2022-11-27T10:27:22.818Z,7.10
2022-11-27T10:28:36.549Z,6.68
2022-11-27T10:29:47.312Z,6.60
2022-11-27T10:31:09.655Z,7.30
2022-11-27T10:32:53.660Z,6.70
2022-11-27T10:33:49.206Z,6.50
2022-11-27T10:34:56.660Z,5.93
2022-11-27T10:36:00.239Z,6.07
2022-11-27T10:37:06.729Z,6.10
2022-11-27T10:38:22.249Z,5.75
2022-11-27T10:39:41.289Z,6.63
2022-11-27T10:41:03.741Z,5.72
2022-11-27T10:42:11.527Z,6.68
2022-11-27T10:43:18.680Z,5.80
2022-11-27T10:44:39.035Z,5.95
2022-11-27T10:45:57.671Z,6.38
2022-11-27T10:47:05.980Z,6.30
2022-11-27T10:48:07.423Z,6.32
2022-11-27T10:49:10.182Z,6.78
2022-11-27T10:50:16.854Z,6.65
2022-11-27T10:51:29.078Z,6.53
2022-11-27T10:52:30.869Z,6.95
2022-11-27T10:53:37.264Z,6.82
2022-11-27T10:54:39.854Z,5.85
2022-11-27T10:56:03.565Z,6.47
2022-11-27T10:57:58.657Z,6.15
2022-11-27T10:59:09.222Z,7.22
2022-11-27T11:00:16.271Z,6.60
2022-11-27T11:01:20.775Z,6.28
2022-11-27T11:02:31.739Z,5.80
2022-11-27T11:03:34.212Z,5.55
2022-11-27T11:04:38.349Z,6.40
2022-11-27T11:06:12.164Z,6.00
2022-11-27T11:07:02.178Z,5.80
2022-11-27T11:08:06.589Z,5.78
2022-11-27T11:09:17.524Z,6.15
2022-11-27T11:10:29.430Z,5.88
2022-11-27T11:11:30.916Z,6.43
2022-11-27T11:12:33.154Z,6.32
2022-11-27T11:13:46.046Z,5.38
2022-11-27T11:14:59.245Z,6.00
2022-11-27T11:16:24.343Z,5.55
2022-11-27T11:17:38.614Z,5.70
2022-11-27T11:18:51.259Z,5.15
2022-11-27T11:19:53.429Z,4.78
2022-11-27T11:20:58.441Z,5.63
2022-11-27T11:22:04.531Z,5.60
2022-11-27T11:23:06.587Z,5.80
2022-11-27T11:24:21.797Z,5.10
2022-11-27T11:25:23.361Z,5.85
2022-11-27T11:26:31.931Z,5.40
2022-11-27T11:27:33.406Z,5.78
2022-11-27T11:28:46.688Z,5.47
2022-11-27T11:30:01.722Z,5.72
2022-11-27T11:31:09.463Z,4.93
2022-11-27T11:32:16.651Z,5.00
2022-11-27T11:33:18.229Z,5.05
2022-11-27T11:34:27.142Z,4.50
2022-11-27T11:35:36.542Z,4.10
2022-11-27T11:36:38.481Z,5.07
2022-11-27T11:37:45.085Z,5.10
2022-11-27T11:38:47.956Z,4.75
2022-11-27T11:40:21.739Z,5.13
2022-11-27T11:42:28.434Z,5.13
2022-11-27T11:43:33.626Z,4.78
2022-11-27T11:44:39.938Z,4.82
2022-11-27T11:45:48.773Z,5.20
2022-11-27T11:46:54.838Z,4.72
2022-11-27T11:47:59.287Z,5.43
2022-11-27T11:49:02.621Z,5.70
2022-11-27T11:50:04.543Z,5.28
2022-11-27T11:51:18.307Z,5.43
2022-11-27T11:52:35.134Z,5.13
2022-11-27T11:53:42.777Z,5.40
2022-11-27T11:54:59.494Z,5.30
2022-11-27T11:56:19.342Z,5.30
2022-11-27T11:57:45.948Z,5.35
2022-11-27T11:58:58.634Z,5.80
2022-11-27T12:00:12.921Z,5.40
2022-11-27T12:01:27.178Z,5.80
2022-11-27T12:02:54.427Z,5.13
2022-11-27T12:04:08.313Z,5.20
2022-11-27T12:05:29.410Z,5.18
2022-11-27T12:06:59.635Z,5.90
2022-11-27T12:08:36.313Z,5.60
2022-11-27T12:10:05.576Z,4.97
2022-11-27T12:11:16.968Z,4.72
2022-11-27T12:12:21.511Z,5.05
2022-11-27T12:13:44.198Z,4.45
2022-11-27T12:15:15.122Z,5.32
2022-11-27T12:16:46.281Z,4.70
2022-11-27T12:18:24.781Z,4.63
2022-11-27T12:19:44.550Z,4.07
2022-11-27T12:21:12.207Z,4.22
2022-11-27T12:24:00.635Z,4.40
2022-11-27T12:25:26.041Z,4.53
2022-11-27T12:26:56.449Z,4.55
2022-11-27T12:29:00.942Z,4.88
2022-11-27T12:32:14.924Z,3.85
2022-11-27T12:33:28.993Z,4.22
2022-11-27T12:35:04.463Z,4.57
2022-11-27T12:36:46.300Z,5.32
2022-11-27T12:38:28.132Z,6.30
2022-11-27T12:39:38.938Z,6.15
2022-11-27T12:41:02.024Z,5.85
2022-11-27T12:42:22.469Z,5.40
2022-11-27T12:43:26.087Z,5.68
2022-11-27T12:44:47.436Z,5.32
2022-11-27T12:46:07.209Z,5.63
2022-11-27T12:47:20.593Z,8.68
2022-11-27T12:48:31.960Z,6.03
2022-11-27T12:49:57.324Z,5.82
2022-11-27T12:51:06.770Z,5.53
2022-11-27T12:52:18.604Z,5.38
2022-11-27T12:53:37.810Z,4.90
2022-11-27T12:55:15.141Z,5.13
2022-11-27T12:56:28.349Z,4.72
2022-11-27T12:58:01.889Z,4.90
2022-11-27T12:59:34.082Z,4.97
2022-11-27T13:00:42.541Z,5.57
2022-11-27T13:01:56.355Z,5.80
2022-11-27T13:03:44.075Z,5.55
2022-11-27T13:04:54.581Z,5.40
2022-11-27T13:06:02.910Z,4.97
2022-11-27T13:07:21.237Z,5.30
2022-11-27T13:08:53.507Z,12.20
2022-11-27T13:10:05.789Z,13.98
2022-11-27T13:11:14.026Z,6.10
2022-11-27T13:12:29.409Z,5.50
2022-11-27T13:14:38.771Z,6.88
2022-11-27T13:16:53.689Z,7.05
2022-11-27T13:18:20.047Z,6.40
2022-11-27T13:19:39.776Z,6.03
2022-11-27T13:20:41.927Z,6.38
2022-11-27T13:21:46.628Z,5.97
2022-11-27T13:22:54.610Z,5.35
2022-11-27T13:24:00.903Z,5.15
2022-11-27T13:25:03.605Z,6.28
2022-11-27T13:26:12.316Z,5.93
2022-11-27T13:27:17.560Z,5.57
2022-11-27T13:28:43.297Z,5.50
2022-11-27T13:30:24.787Z,6.35
2022-11-27T13:31:30.783Z,5.07
2022-11-27T13:32:42.020Z,4.93
2022-11-27T13:33:45.793Z,4.35
2022-11-27T13:34:48.537Z,5.20
2022-11-27T13:35:50.187Z,4.70
2022-11-27T13:36:56.891Z,4.78
2022-11-27T13:38:12.625Z,5.00
2022-11-27T13:39:27.662Z,5.35
2022-11-27T13:40:39.266Z,4.70
2022-11-27T13:41:41.200Z,5.60
2022-11-27T13:42:55.413Z,5.32
2022-11-27T13:43:57.625Z,5.43
2022-11-27T13:45:04.502Z,5.93
2022-11-27T13:46:16.155Z,5.18
2022-11-27T13:47:20.440Z,5.55
2022-11-27T13:48:34.711Z,5.93
2022-11-27T13:49:37.954Z,7.40
2022-11-27T13:50:46.545Z,6.72
2022-11-27T13:51:48.086Z,6.43
2022-11-27T13:53:05.949Z,6.25
2022-11-27T13:54:08.768Z,5.95
2022-11-27T13:55:10.263Z,5.85
2022-11-27T13:56:12.901Z,6.10
2022-11-27T13:57:18.838Z,5.68
2022-11-27T13:58:31.112Z,6.22
2022-11-27T13:59:36.451Z,6.28
2022-11-27T14:00:44.088Z,6.15
2022-11-27T14:02:15.604Z,5.63
2022-11-27T14:03:41.703Z,4.90
2022-11-27T14:04:55.858Z,4.85
2022-11-27T14:05:58.039Z,5.10
2022-11-27T14:07:21.475Z,4.50
2022-11-27T14:08:34.570Z,5.05
2022-11-27T14:09:44.498Z,5.20
2022-11-27T14:10:52.856Z,5.45
2022-11-27T14:11:54.397Z,5.60
2022-11-27T14:13:08.775Z,5.00
2022-11-27T14:14:23.941Z,5.10
2022-11-27T14:15:33.792Z,4.70
2022-11-27T14:16:36.938Z,4.78
2022-11-27T14:17:44.109Z,4.13
2022-11-27T14:18:52.196Z,4.40
2022-11-27T14:20:05.130Z,4.70
2022-11-27T14:21:06.646Z,4.28
2022-11-27T14:22:32.765Z,4.75
2022-11-27T14:23:49.882Z,4.45
2022-11-27T14:24:55.910Z,4.05
2022-11-27T14:26:26.648Z,4.30
2022-11-27T14:27:35.622Z,4.32
2022-11-27T14:28:37.702Z,4.60
2022-11-27T14:29:39.262Z,5.07
2022-11-27T14:30:53.079Z,4.90
2022-11-27T14:31:59.998Z,5.35
2022-11-27T14:33:05.199Z,4.60
2022-11-27T14:34:16.849Z,4.30
2022-11-27T14:35:25.132Z,5.05
2022-11-27T14:36:30.756Z,4.35
2022-11-27T14:37:32.536Z,4.90
2022-11-27T14:38:35.347Z,4.40
2022-11-27T14:39:37.734Z,3.83
2022-11-27T14:40:39.374Z,4.50
2022-11-27T14:41:40.810Z,4.80
2022-11-27T14:42:42.577Z,4.47
2022-11-27T14:43:44.110Z,4.30
2022-11-27T14:44:45.551Z,3.85
2022-11-27T14:45:51.355Z,3.70
2022-11-27T14:46:53.105Z,3.42
2022-11-27T14:47:56.107Z,4.10
2022-11-27T14:48:57.637Z,4.00
2022-11-27T14:50:00.274Z,4.32
2022-11-27T14:51:03.077Z,3.78
2022-11-27T14:52:07.385Z,4.22
2022-11-27T14:53:11.573Z,4.20
2022-11-27T14:54:22.980Z,3.80
2022-11-27T14:55:30.289Z,3.85
2022-11-27T14:56:39.610Z,3.92